Terminal Aerodrome Forecast
Issued by NWS Charleston, WV

Current Version | Previous Version | Graphics & Text | Print | Product List | Glossary On
Versions: 1 2 3 4 5 6 7 8 9 10 11 12 13 14 15 16 17 18 19 20 21 22 23 24
936
FTUS41 KRLX 101739
TAFPKB
TAF
KPKB 101739Z 1018/1118 26010G18KT 5SM -SHSN SCT015 OVC025
      TEMPO 1018/1022 1 1/2SM -SHSN SCT008 OVC015
     FM110100 26009KT P6SM -SHSN OVC025
     FM110500 26006KT P6SM -SHSN OVC030
     FM110800 25005KT P6SM OVC035
     FM111300 25005KT P6SM BKN040=

USA.gov is the U.S. government's official web portal to all federal, state and local government web resources and services.